createdAt,value
2022-08-07T00:02:41.244Z,0.75
2022-08-07T00:04:55.247Z,0.68
2022-08-07T00:07:22.817Z,1.20
2022-08-07T00:10:17.834Z,1.20
2022-08-07T00:12:57.844Z,0.80
2022-08-07T00:15:25.763Z,0.80
2022-08-07T00:18:04.131Z,0.57
2022-08-07T00:20:34.335Z,0.80
2022-08-07T00:23:07.982Z,1.00
2022-08-07T00:25:37.447Z,0.98
2022-08-07T00:28:08.709Z,0.70
2022-08-07T00:30:38.385Z,1.10
2022-08-07T00:33:07.624Z,0.80
2022-08-07T00:35:35.341Z,0.80
2022-08-07T00:38:04.940Z,0.93
2022-08-07T00:40:39.837Z,0.82
2022-08-07T00:46:01.752Z,1.00
2022-08-07T00:48:30.978Z,0.70
2022-08-07T00:51:01.021Z,1.08
2022-08-07T00:53:39.426Z,0.68
2022-08-07T00:56:15.849Z,1.00
2022-08-07T00:58:47.389Z,0.93
2022-08-07T01:01:18.642Z,0.88
2022-08-07T01:03:56.772Z,1.10
2022-08-07T01:06:29.449Z,0.65
2022-08-07T01:08:58.670Z,1.00
2022-08-07T01:12:23.969Z,1.10
2022-08-07T01:14:17.351Z,0.98
2022-08-07T01:16:49.331Z,1.00
2022-08-07T01:19:20.614Z,0.73
2022-08-07T01:21:53.168Z,1.13
2022-08-07T01:24:25.005Z,1.63
2022-08-07T01:26:53.959Z,1.00
2022-08-07T01:29:27.879Z,0.80
2022-08-07T01:31:59.292Z,0.95
2022-08-07T01:34:31.478Z,0.90
2022-08-07T01:37:01.170Z,1.10
2022-08-07T01:39:41.086Z,1.35
2022-08-07T01:42:38.454Z,1.10
2022-08-07T01:45:23.064Z,1.17
2022-08-07T01:48:18.213Z,0.82
2022-08-07T01:51:24.539Z,0.80
2022-08-07T01:54:08.776Z,0.93
2022-08-07T01:56:52.283Z,0.82
2022-08-07T01:59:31.115Z,1.00
2022-08-07T02:02:10.443Z,1.20
2022-08-07T02:04:56.473Z,0.80
2022-08-07T02:07:44.709Z,1.55
2022-08-07T02:10:23.660Z,1.20
2022-08-07T02:12:52.301Z,1.10
2022-08-07T02:15:28.010Z,0.98
2022-08-07T02:17:57.491Z,1.00
2022-08-07T02:20:30.416Z,0.90
2022-08-07T02:23:02.549Z,1.38
2022-08-07T02:26:26.721Z,1.33
2022-08-07T02:28:25.372Z,1.17
2022-08-07T02:30:58.034Z,1.33
2022-08-07T02:33:32.874Z,1.08
2022-08-07T02:36:29.684Z,1.10
2022-08-07T02:39:16.584Z,1.15
2022-08-07T02:41:54.471Z,1.20
2022-08-07T02:44:26.931Z,1.02
2022-08-07T02:47:04.263Z,1.30
2022-08-07T02:49:59.028Z,1.73
2022-08-07T02:52:41.406Z,1.30
2022-08-07T02:55:28.524Z,1.05
2022-08-07T02:58:21.555Z,1.20
2022-08-07T03:00:52.914Z,1.50
2022-08-07T03:03:22.813Z,1.42
2022-08-07T03:05:54.918Z,1.33
2022-08-07T03:08:26.907Z,1.30
2022-08-07T03:10:57.672Z,1.48
2022-08-07T03:13:30.594Z,1.45
2022-08-07T03:16:08.712Z,1.40
2022-08-07T03:18:38.169Z,1.38
2022-08-07T03:21:08.868Z,1.58
2022-08-07T03:24:17.805Z,1.75
2022-08-07T03:26:33.227Z,1.50
2022-08-07T03:29:10.466Z,1.35
2022-08-07T03:31:43.791Z,1.55
2022-08-07T03:34:18.556Z,1.25
2022-08-07T03:36:53.705Z,1.63
2022-08-07T03:39:45.822Z,1.38
2022-08-07T03:42:12.270Z,1.77
2022-08-07T03:44:41.416Z,1.52
2022-08-07T03:47:13.656Z,1.50
2022-08-07T03:49:47.650Z,1.48
2022-08-07T03:52:26.820Z,1.10
2022-08-07T03:55:06.812Z,2.15
2022-08-07T03:59:07.457Z,1.25
2022-08-07T04:00:30.208Z,1.60
2022-08-07T04:02:59.648Z,1.75
2022-08-07T04:05:40.188Z,1.52
2022-08-07T04:08:16.266Z,1.95
2022-08-07T04:10:54.375Z,1.77
2022-08-07T04:14:10.327Z,1.55
2022-08-07T04:16:30.886Z,1.90
2022-08-07T04:19:04.121Z,2.10
2022-08-07T04:21:58.934Z,1.80
2022-08-07T04:24:34.011Z,1.85
2022-08-07T04:27:15.302Z,2.13
2022-08-07T04:30:01.165Z,2.40
2022-08-07T04:32:37.863Z,2.30
2022-08-07T04:35:11.379Z,1.92
2022-08-07T04:38:00.795Z,2.60
2022-08-07T04:40:29.982Z,1.58
2022-08-07T04:43:02.199Z,1.83
2022-08-07T04:46:01.745Z,2.30
2022-08-07T04:49:17.652Z,1.67
2022-08-07T04:52:01.232Z,2.22
2022-08-07T04:54:35.065Z,1.63
2022-08-07T04:58:09.704Z,2.22
2022-08-07T05:00:31.019Z,2.58
2022-08-07T05:04:00.387Z,2.67
2022-08-07T05:06:28.089Z,1.95
2022-08-07T05:09:13.293Z,1.73
2022-08-07T05:11:56.892Z,2.33
2022-08-07T05:14:53.825Z,2.08
2022-08-07T05:17:52.481Z,2.08
2022-08-07T05:20:26.783Z,2.70
2022-08-07T05:23:05.869Z,2.47
2022-08-07T05:26:11.839Z,3.30
2022-08-07T05:28:35.207Z,2.85
2022-08-07T05:31:04.859Z,3.40
2022-08-07T05:33:36.990Z,2.72
2022-08-07T05:36:12.091Z,2.90
2022-08-07T05:39:00.838Z,3.40
2022-08-07T05:42:03.048Z,2.90
2022-08-07T05:44:29.580Z,3.60
2022-08-07T05:47:00.341Z,3.03
2022-08-07T05:49:41.014Z,3.42
2022-08-07T05:52:11.660Z,3.33
2022-08-07T05:54:44.289Z,4.10
2022-08-07T05:57:22.190Z,3.28
2022-08-07T05:59:55.838Z,4.03
2022-08-07T06:02:30.573Z,4.20
2022-08-07T06:05:10.875Z,5.07
2022-08-07T06:08:12.942Z,4.65
2022-08-07T06:10:28.543Z,4.53
2022-08-07T06:12:56.446Z,5.90
2022-08-07T06:15:39.179Z,6.15
2022-08-07T06:18:14.057Z,8.30
2022-08-07T06:20:51.116Z,6.50
2022-08-07T06:24:38.124Z,6.75
2022-08-07T06:26:20.554Z,8.40
2022-08-07T06:28:50.814Z,8.52
2022-08-07T06:31:24.247Z,9.52
2022-08-07T06:34:08.633Z,8.25
2022-08-07T06:36:36.775Z,8.30
2022-08-07T06:40:17.395Z,7.55
2022-08-07T06:42:04.710Z,7.72
2022-08-07T06:44:51.803Z,8.05
2022-08-07T06:47:22.343Z,8.05
2022-08-07T06:49:51.987Z,9.55
2022-08-07T06:52:36.391Z,7.57
2022-08-07T06:55:32.196Z,8.48
2022-08-07T06:58:09.490Z,7.97
2022-08-07T07:00:46.784Z,8.93
2022-08-07T07:03:40.130Z,7.88
2022-08-07T07:06:11.084Z,8.27
2022-08-07T07:08:39.898Z,7.88
2022-08-07T07:12:07.442Z,7.05
2022-08-07T07:14:02.877Z,6.65
2022-08-07T07:16:45.023Z,7.45
2022-08-07T07:19:57.993Z,7.68
2022-08-07T07:22:36.622Z,7.72
2022-08-07T07:25:02.940Z,7.97
2022-08-07T07:28:42.611Z,6.63
2022-08-07T07:31:21.874Z,6.07
2022-08-07T07:33:57.209Z,7.13
2022-08-07T07:36:32.398Z,5.57
2022-08-07T07:42:02.043Z,6.80
2022-08-07T07:44:26.695Z,6.07
2022-08-07T07:47:04.409Z,5.50
2022-08-07T07:50:33.398Z,5.18
2022-08-07T07:52:31.011Z,5.38
2022-08-07T07:54:59.337Z,5.45
2022-08-07T07:57:50.261Z,5.47
2022-08-07T08:00:28.938Z,5.40
2022-08-07T08:03:16.885Z,5.90
2022-08-07T08:05:59.479Z,5.70
2022-08-07T08:08:37.094Z,4.57
2022-08-07T08:11:09.350Z,4.45
2022-08-07T08:13:55.466Z,4.10
2022-08-07T08:16:50.378Z,3.38
2022-08-07T08:20:18.852Z,3.42
2022-08-07T08:22:32.638Z,3.35
2022-08-07T08:25:41.712Z,3.63
2022-08-07T08:28:16.851Z,3.75
2022-08-07T08:30:58.113Z,3.92
2022-08-07T08:33:37.082Z,4.13
2022-08-07T08:36:09.011Z,3.90
2022-08-07T08:38:44.552Z,4.28
2022-08-07T08:41:17.988Z,3.60
2022-08-07T08:44:04.484Z,2.97
2022-08-07T08:46:56.580Z,3.60
2022-08-07T08:49:46.418Z,3.13
2022-08-07T08:52:36.023Z,3.17
2022-08-07T08:55:55.284Z,3.67
2022-08-07T08:58:28.405Z,2.78
2022-08-07T09:01:19.484Z,3.15
2022-08-07T09:04:28.895Z,3.53
2022-08-07T09:07:23.235Z,3.22
2022-08-07T09:10:45.262Z,3.15
2022-08-07T09:13:47.293Z,2.80
2022-08-07T09:16:57.683Z,2.55
2022-08-07T09:19:53.337Z,2.88
2022-08-07T09:24:30.994Z,2.85
2022-08-07T09:25:25.695Z,3.03
2022-08-07T09:30:02.282Z,2.65
2022-08-07T09:31:49.340Z,2.60
2022-08-07T09:34:31.745Z,2.45
2022-08-07T09:37:14.728Z,2.83
2022-08-07T09:40:01.886Z,2.95
2022-08-07T09:42:58.134Z,2.65
2022-08-07T09:47:49.424Z,2.22
2022-08-07T09:50:02.684Z,2.15
2022-08-07T09:52:43.909Z,2.10
2022-08-07T09:56:03.326Z,3.20
2022-08-07T09:58:51.444Z,2.70
2022-08-07T10:01:50.971Z,2.00
2022-08-07T10:04:47.704Z,2.80
2022-08-07T10:07:54.942Z,2.22
2022-08-07T10:12:00.573Z,2.70
2022-08-07T10:14:30.296Z,2.30
2022-08-07T10:18:00.357Z,1.77
2022-08-07T10:20:32.882Z,2.10
2022-08-07T10:24:05.046Z,1.85
2022-08-07T10:27:01.258Z,1.83
2022-08-07T10:30:07.080Z,2.33
2022-08-07T10:33:15.322Z,2.90
2022-08-07T10:36:36.220Z,2.53
2022-08-07T10:40:03.551Z,1.92
2022-08-07T10:43:34.260Z,2.25
2022-08-07T10:46:09.912Z,2.45
2022-08-07T10:49:16.837Z,1.92
2022-08-07T10:52:02.045Z,1.75
2022-08-07T10:55:20.761Z,2.30
2022-08-07T10:58:01.084Z,2.50
2022-08-07T11:00:43.124Z,2.10
2022-08-07T11:03:54.817Z,1.90
2022-08-07T11:07:24.525Z,1.30
2022-08-07T11:10:09.293Z,2.00
2022-08-07T11:13:01.734Z,1.80
2022-08-07T11:15:38.753Z,1.88
2022-08-07T11:18:19.513Z,1.83
2022-08-07T11:21:02.893Z,1.55
2022-08-07T11:24:01.142Z,1.70
2022-08-07T11:26:48.010Z,1.73
2022-08-07T11:29:48.294Z,1.33
2022-08-07T11:32:41.082Z,1.80
2022-08-07T11:35:35.042Z,1.63
2022-08-07T11:38:39.983Z,1.67
2022-08-07T11:41:18.294Z,1.38
2022-08-07T11:44:19.031Z,1.77
2022-08-07T11:47:13.575Z,1.50
2022-08-07T11:50:31.789Z,1.83
2022-08-07T11:53:04.977Z,1.70
2022-08-07T11:56:09.742Z,1.70
2022-08-07T11:59:22.052Z,1.60
2022-08-07T12:02:33.263Z,1.83
2022-08-07T12:06:40.020Z,1.80
2022-08-07T12:09:03.176Z,1.88
2022-08-07T12:12:10.233Z,1.30
2022-08-07T12:15:46.201Z,1.70
2022-08-07T12:18:16.166Z,1.98
2022-08-07T12:22:36.615Z,1.55
2022-08-07T12:26:00.406Z,1.30
2022-08-07T12:28:16.453Z,1.60
2022-08-07T12:31:37.658Z,1.20
2022-08-07T12:34:20.826Z,1.60
2022-08-07T12:36:52.529Z,1.95
2022-08-07T12:39:43.074Z,1.90
2022-08-07T12:42:13.148Z,1.90
2022-08-07T12:44:45.245Z,1.95
2022-08-07T12:47:49.479Z,1.80
2022-08-07T12:50:49.157Z,1.92
2022-08-07T12:54:02.753Z,1.77
2022-08-07T12:56:51.132Z,1.33
2022-08-07T12:59:33.265Z,1.50
2022-08-07T13:03:00.434Z,1.52
2022-08-07T13:06:29.435Z,1.30
2022-08-07T13:10:19.706Z,1.20
2022-08-07T13:12:57.141Z,1.17
2022-08-07T13:15:59.213Z,1.42
2022-08-07T13:19:21.713Z,1.38
2022-08-07T13:22:27.493Z,0.98
2022-08-07T13:25:02.525Z,1.35
2022-08-07T13:28:12.934Z,1.30
2022-08-07T13:30:48.905Z,1.40
2022-08-07T13:34:31.450Z,1.30
2022-08-07T13:36:39.744Z,1.30
2022-08-07T13:39:28.513Z,1.40
2022-08-07T13:42:21.563Z,1.65
2022-08-07T13:46:07.075Z,1.30
2022-08-07T13:48:06.221Z,1.50
2022-08-07T13:50:44.455Z,1.63
2022-08-07T13:53:35.882Z,1.30
2022-08-07T13:56:35.400Z,1.70
2022-08-07T13:59:31.575Z,1.58
2022-08-07T14:02:13.168Z,2.15
2022-08-07T14:04:57.966Z,1.60
2022-08-07T14:07:31.376Z,1.08
2022-08-07T14:10:16.357Z,1.33
2022-08-07T14:12:57.823Z,1.38
2022-08-07T14:15:41.383Z,1.30
2022-08-07T14:18:28.893Z,1.23
2022-08-07T14:21:20.926Z,1.38
2022-08-07T14:24:08.811Z,1.30
2022-08-07T14:28:11.704Z,1.27
2022-08-07T14:30:04.955Z,1.25
2022-08-07T14:32:50.590Z,1.20
2022-08-07T14:35:45.607Z,1.40
2022-08-07T14:38:26.852Z,1.10
2022-08-07T14:41:34.155Z,1.00
2022-08-07T14:44:19.837Z,1.17
2022-08-07T14:49:58.406Z,0.80
2022-08-07T14:52:31.188Z,0.98
2022-08-07T14:55:00.373Z,1.42
2022-08-07T14:57:54.810Z,1.05
2022-08-07T15:00:30.624Z,1.45
2022-08-07T15:03:00.291Z,2.10
2022-08-07T15:05:54.721Z,1.58
2022-08-07T15:08:47.579Z,1.45
2022-08-07T15:11:54.437Z,1.30
2022-08-07T15:17:16.899Z,1.30
2022-08-07T15:20:32.664Z,1.27
2022-08-07T15:23:01.343Z,1.65
2022-08-07T15:25:59.038Z,1.30
2022-08-07T15:28:34.944Z,1.30
2022-08-07T15:32:01.578Z,1.10
2022-08-07T15:34:04.275Z,1.00
2022-08-07T15:39:25.889Z,1.45
2022-08-07T15:42:43.486Z,1.00
2022-08-07T15:44:54.572Z,0.95
2022-08-07T15:47:42.792Z,1.35
2022-08-07T15:50:37.497Z,1.50
2022-08-07T15:53:12.751Z,0.98
2022-08-07T15:55:53.614Z,1.20
2022-08-07T15:58:41.720Z,0.80
2022-08-07T16:01:20.290Z,0.63
2022-08-07T16:03:59.133Z,0.82
2022-08-07T16:06:34.091Z,0.93
2022-08-07T16:09:22.321Z,0.70
2022-08-07T16:12:28.716Z,0.75
2022-08-07T16:15:58.831Z,0.90
2022-08-07T16:19:09.612Z,0.45
2022-08-07T16:22:02.317Z,1.10
2022-08-07T16:24:52.596Z,0.50
2022-08-07T16:27:39.915Z,0.57
2022-08-07T16:30:31.136Z,0.65
2022-08-07T16:34:01.374Z,0.60
2022-08-07T16:37:24.934Z,0.52
2022-08-07T16:40:23.029Z,0.70
2022-08-07T16:43:22.184Z,0.70
2022-08-07T16:47:04.433Z,0.95
2022-08-07T16:50:27.542Z,0.52
2022-08-07T16:54:02.343Z,1.08
2022-08-07T16:56:37.565Z,0.45
2022-08-07T16:59:47.033Z,0.60
2022-08-07T17:03:04.645Z,0.70
2022-08-07T17:06:19.186Z,0.60
2022-08-07T17:09:09.312Z,0.47
2022-08-07T17:12:01.976Z,1.20
2022-08-07T17:15:04.993Z,0.60
2022-08-07T17:17:48.157Z,0.90
2022-08-07T17:20:41.715Z,0.68
2022-08-07T17:23:33.737Z,1.08
2022-08-07T17:26:30.742Z,0.98
2022-08-07T17:30:14.246Z,0.80
2022-08-07T17:32:31.250Z,0.85
2022-08-07T17:35:51.743Z,1.27
2022-08-07T17:39:10.691Z,0.90
2022-08-07T17:42:06.955Z,1.10
2022-08-07T17:44:50.680Z,1.10
2022-08-07T17:47:44.371Z,1.23
2022-08-07T17:50:49.848Z,1.05
2022-08-07T17:53:59.786Z,1.02
2022-08-07T17:56:37.765Z,1.20
2022-08-07T17:59:35.750Z,1.05
2022-08-07T18:03:09.192Z,1.65
2022-08-07T18:06:16.638Z,1.10
2022-08-07T18:09:02.061Z,1.02
2022-08-07T18:12:07.186Z,1.20
2022-08-07T18:15:22.770Z,1.50
2022-08-07T18:18:46.499Z,1.27
2022-08-07T18:21:37.188Z,1.15
2022-08-07T18:24:42.583Z,1.00
2022-08-07T18:27:55.844Z,1.20
2022-08-07T18:30:38.189Z,1.33
2022-08-07T18:33:39.133Z,1.92
2022-08-07T18:36:53.822Z,0.95
2022-08-07T18:40:38.583Z,1.20
2022-08-07T18:43:43.257Z,1.77
2022-08-07T18:46:51.213Z,1.10
2022-08-07T18:50:31.521Z,1.08
2022-08-07T18:53:01.461Z,1.05
2022-08-07T18:56:16.213Z,1.00
2022-08-07T18:59:47.412Z,1.15
2022-08-07T19:02:42.287Z,1.30
2022-08-07T19:06:04.119Z,1.50
2022-08-07T19:08:26.716Z,1.38
2022-08-07T19:11:36.268Z,1.17
2022-08-07T19:14:16.908Z,1.27
2022-08-07T19:17:06.548Z,1.70
2022-08-07T19:19:53.745Z,1.30
2022-08-07T19:22:36.083Z,1.60
2022-08-07T19:25:10.041Z,1.30
2022-08-07T19:28:29.257Z,1.58
2022-08-07T19:31:04.297Z,1.13
2022-08-07T19:33:39.423Z,1.20
2022-08-07T19:36:16.966Z,1.50
2022-08-07T19:41:44.257Z,1.40
2022-08-07T19:44:33.307Z,1.30
2022-08-07T19:47:11.934Z,1.88
2022-08-07T19:49:58.345Z,1.63
2022-08-07T19:52:31.898Z,1.50
2022-08-07T19:55:02.865Z,1.65
2022-08-07T19:58:03.482Z,1.52
2022-08-07T20:00:32.340Z,1.50
2022-08-07T20:03:35.513Z,1.52
2022-08-07T20:06:02.465Z,1.45
2022-08-07T20:08:40.017Z,1.70
2022-08-07T20:14:03.258Z,1.45
2022-08-07T20:16:36.970Z,2.45
2022-08-07T20:19:11.129Z,1.33
2022-08-07T20:21:48.075Z,1.85
2022-08-07T20:24:28.448Z,2.05
2022-08-07T20:27:03.207Z,1.88
2022-08-07T20:29:56.889Z,2.72
2022-08-07T20:32:40.108Z,1.95
2022-08-07T20:35:26.349Z,1.55
2022-08-07T20:37:59.502Z,2.08
2022-08-07T20:40:35.053Z,1.63
2022-08-07T20:43:09.463Z,1.95
2022-08-07T20:46:26.476Z,2.17
2022-08-07T20:48:34.578Z,1.65
2022-08-07T20:51:09.680Z,2.42
2022-08-07T20:54:03.434Z,1.50
2022-08-07T20:56:34.924Z,1.88
2022-08-07T20:59:05.394Z,1.92
2022-08-07T21:01:45.377Z,2.20
2022-08-07T21:04:27.011Z,2.38
2022-08-07T21:07:03.894Z,1.77
2022-08-07T21:09:53.187Z,1.83
2022-08-07T21:12:31.188Z,1.67
2022-08-07T21:15:03.779Z,1.90
2022-08-07T21:18:02.950Z,1.80
2022-08-07T21:20:29.798Z,1.88
2022-08-07T21:23:04.511Z,2.13
2022-08-07T21:26:01.495Z,2.10
2022-08-07T21:28:54.756Z,1.83
2022-08-07T21:32:47.114Z,2.22
2022-08-07T21:35:02.394Z,2.50
2022-08-07T21:37:58.563Z,2.20
2022-08-07T21:40:45.633Z,2.40
2022-08-07T21:43:55.619Z,2.25
2022-08-07T21:46:45.271Z,2.28
2022-08-07T21:49:29.564Z,2.20
2022-08-07T21:52:32.953Z,2.10
2022-08-07T21:55:38.240Z,2.45
2022-08-07T21:58:30.603Z,2.60
2022-08-07T22:01:08.519Z,2.08
2022-08-07T22:03:51.114Z,2.65
2022-08-07T22:06:30.408Z,3.05
2022-08-07T22:09:10.925Z,2.92
2022-08-07T22:11:52.933Z,2.50
2022-08-07T22:14:23.672Z,2.90
2022-08-07T22:17:05.918Z,2.45
2022-08-07T22:20:06.537Z,2.28
2022-08-07T22:22:50.195Z,2.58
2022-08-07T22:25:55.863Z,2.65
2022-08-07T22:28:39.574Z,2.47
2022-08-07T22:31:45.710Z,2.22
2022-08-07T22:34:53.360Z,2.72
2022-08-07T22:38:03.211Z,2.53
2022-08-07T22:41:02.889Z,2.90
2022-08-07T22:43:39.900Z,2.90
2022-08-07T22:47:02.243Z,2.47
2022-08-07T22:49:55.036Z,2.50
2022-08-07T22:52:39.708Z,3.20
2022-08-07T22:55:38.837Z,2.38
2022-08-07T22:58:30.490Z,2.95
2022-08-07T23:01:51.184Z,2.22
2022-08-07T23:04:58.032Z,3.00
2022-08-07T23:08:24.029Z,2.65
2022-08-07T23:11:26.055Z,2.92
2022-08-07T23:14:15.900Z,3.03
2022-08-07T23:17:08.430Z,2.63
2022-08-07T23:20:52.986Z,2.75
2022-08-07T23:24:05.208Z,2.63
2022-08-07T23:26:42.025Z,3.90
2022-08-07T23:30:39.456Z,3.30
2022-08-07T23:34:21.125Z,2.30
2022-08-07T23:36:28.734Z,2.97
2022-08-07T23:39:13.179Z,3.17
2022-08-07T23:42:21.653Z,2.97
2022-08-07T23:46:02.851Z,2.58
2022-08-07T23:48:59.878Z,2.85
2022-08-07T23:53:05.300Z,3.90
2022-08-07T23:54:52.858Z,2.70
2022-08-07T23:57:36.961Z,2.67
